Time;durP1;ratioP1;P1;durP2;ratioP2;P2;SDS_P1;SDS_P2;PMS_P1;PMS_P2;Temp;Humidity;BMP_temperature;BMP_pressure;BME280_temperature;BME280_humidity;BME280_pressure;Samples;Min_cycle;Max_cycle;Signal;HPM_P1;HPM_P2
2021/07/13 00:00:55;;;;;;;8.43;7.57;;;20.30;99.90;;;;;;4963537;28;20234;-85
2021/07/13 00:03:21;;;;;;;8.03;7.23;;;20.30;99.90;;;;;;4981519;28;20559;-85
2021/07/13 00:05:48;;;;;;;9.23;7.80;;;20.30;99.90;;;;;;4964571;28;20780;-83
2021/07/13 00:08:14;;;;;;;9.67;8.33;;;20.20;99.90;;;;;;4964973;28;20247;-86
2021/07/13 00:10:40;;;;;;;9.23;8.30;;;20.30;99.90;;;;;;4962671;28;20204;-86
2021/07/13 00:13:06;;;;;;;8.00;7.20;;;20.30;99.90;;;;;;4979319;28;20288;-86
2021/07/13 00:15:37;;;;;;;9.20;8.20;;;20.20;99.90;;;;;;4963385;28;20335;-86
2021/07/13 00:18:03;;;;;;;8.40;7.60;;;20.20;99.90;;;;;;4964000;28;20188;-86
2021/07/13 00:20:28;;;;;;;10.03;7.33;;;20.30;99.90;;;;;;4962453;28;20246;-86
2021/07/13 00:22:54;;;;;;;8.83;7.90;;;20.30;99.90;;;;;;4962585;28;20227;-86
2021/07/13 00:25:20;;;;;;;8.87;7.87;;;20.30;99.90;;;;;;4962758;28;20556;-86
2021/07/13 00:27:46;;;;;;;8.50;7.70;;;20.30;99.90;;;;;;4962704;28;20263;-86
2021/07/13 00:30:12;;;;;;;8.87;7.97;;;20.20;99.90;;;;;;4962901;28;20584;-86
2021/07/13 00:32:38;;;;;;;8.50;7.53;;;20.20;99.90;;;;;;4963430;28;20208;-86
2021/07/13 00:35:04;;;;;;;8.87;7.97;;;20.20;99.90;;;;;;4962701;28;20176;-85
2021/07/13 00:37:30;;;;;;;9.30;8.40;;;20.30;99.90;;;;;;4962761;28;20250;-86
2021/07/13 00:39:55;;;;;;;9.07;8.17;;;20.30;99.90;;;;;;4978304;28;20271;-86
2021/07/13 00:42:21;;;;;;;7.77;6.97;;;20.30;99.90;;;;;;4962531;28;20625;-86
2021/07/13 00:44:47;;;;;;;8.23;7.43;;;20.30;99.90;;;;;;4963206;28;20188;-86
2021/07/13 00:47:13;;;;;;;8.70;7.80;;;20.30;99.90;;;;;;4963108;28;20246;-84
2021/07/13 00:49:39;;;;;;;8.90;8.10;;;20.20;99.90;;;;;;4962769;28;20176;-85
2021/07/13 00:52:07;;;;;;;9.17;8.27;;;20.30;99.90;;;;;;4962058;28;20611;-86
2021/07/13 00:54:33;;;;;;;9.13;8.10;;;20.30;99.90;;;;;;4964139;28;20216;-86
2021/07/13 00:56:58;;;;;;;8.60;7.80;;;20.30;99.90;;;;;;4962481;28;20658;-86
2021/07/13 00:59:24;;;;;;;10.33;7.73;;;20.20;99.90;;;;;;4962435;28;20206;-85
2021/07/13 01:01:50;;;;;;;8.83;7.63;;;20.20;99.90;;;;;;4962702;28;20291;-85
2021/07/13 01:04:16;;;;;;;11.30;8.33;;;20.20;99.90;;;;;;4963005;28;20178;-86
2021/07/13 01:07:01;;;;;;;8.50;7.13;;;20.20;99.90;;;;;;4978806;28;20569;-85
2021/07/13 01:09:39;;;;;;;8.63;7.43;;;20.20;99.90;;;;;;4962452;28;20677;-86
2021/07/13 01:12:36;;;;;;;8.33;7.53;;;20.20;99.90;;;;;;4963639;28;20183;-86
2021/07/13 01:15:02;;;;;;;8.37;7.57;;;20.20;99.90;;;;;;4994460;28;20235;-86
2021/07/13 01:17:34;;;;;;;8.27;7.43;;;20.20;99.90;;;;;;4977599;28;20202;-85
2021/07/13 01:20:17;;;;;;;8.23;7.13;;;20.20;99.90;;;;;;4962124;28;20181;-85
2021/07/13 01:22:51;;;;;;;7.83;7.03;;;20.20;99.90;;;;;;4993990;28;20200;-86
2021/07/13 01:25:16;;;;;;;8.37;7.30;;;20.20;99.90;;;;;;4963078;28;20194;-84
2021/07/13 01:28:01;;;;;;;7.53;6.73;;;20.20;99.90;;;;;;4995905;28;20204;-86
2021/07/13 01:30:29;;;;;;;7.47;6.67;;;20.20;99.90;;;;;;4962132;28;20706;-86
2021/07/13 01:33:17;;;;;;;7.33;6.53;;;20.20;99.90;;;;;;4962020;28;20202;-86
2021/07/13 01:35:58;;;;;;;7.20;6.50;;;20.20;99.90;;;;;;4963322;28;20192;-86
2021/07/13 01:38:25;;;;;;;10.20;6.57;;;20.20;99.90;;;;;;4962180;28;20176;-85
2021/07/13 01:40:54;;;;;;;7.63;6.50;;;20.20;99.90;;;;;;4962006;28;20180;-86
2021/07/13 01:43:19;;;;;;;8.03;6.20;;;20.20;99.90;;;;;;4961831;28;20271;-85
2021/07/13 01:45:45;;;;;;;7.70;6.90;;;20.20;99.90;;;;;;4961636;28;20223;-86
2021/07/13 01:48:11;;;;;;;8.87;6.33;;;20.20;99.90;;;;;;4963442;28;20183;-86
2021/07/13 01:50:37;;;;;;;7.33;6.63;;;20.20;99.90;;;;;;4961081;28;20206;-86
2021/07/13 01:53:02;;;;;;;6.77;5.60;;;20.20;99.90;;;;;;4961688;28;20569;-86
2021/07/13 01:55:31;;;;;;;6.83;6.13;;;20.20;99.90;;;;;;4961144;28;20184;-86
2021/07/13 01:57:57;;;;;;;7.30;6.60;;;20.20;99.90;;;;;;4961683;28;20662;-85
2021/07/13 02:00:22;;;;;;;6.57;5.53;;;20.20;99.90;;;;;;4960956;28;20179;-86
2021/07/13 02:02:48;;;;;;;6.67;5.97;;;20.20;99.90;;;;;;4961630;28;20191;-85
2021/07/13 02:05:14;;;;;;;7.13;5.93;;;20.10;99.90;;;;;;4977535;28;20716;-86
2021/07/13 02:07:41;;;;;;;6.97;6.20;;;20.10;99.90;;;;;;4977078;28;20552;-86
2021/07/13 02:10:07;;;;;;;9.27;6.03;;;20.10;99.90;;;;;;4961424;28;20271;-86
2021/07/13 02:12:33;;;;;;;6.93;6.20;;;20.10;99.90;;;;;;4961263;28;20172;-86
2021/07/13 02:14:59;;;;;;;6.77;6.00;;;20.10;99.90;;;;;;4960199;28;20242;-86
2021/07/13 02:17:25;;;;;;;6.93;5.97;;;20.10;99.90;;;;;;4961283;28;20287;-84
2021/07/13 02:19:51;;;;;;;6.93;5.97;;;20.10;99.90;;;;;;4976905;28;20591;-85
2021/07/13 02:22:16;;;;;;;6.63;5.63;;;20.10;99.90;;;;;;4960739;28;20275;-86
2021/07/13 02:24:42;;;;;;;5.93;5.33;;;20.10;99.90;;;;;;4961829;28;20188;-86
2021/07/13 02:27:12;;;;;;;6.83;5.83;;;20.10;99.90;;;;;;4977646;28;20670;-86
2021/07/13 02:30:05;;;;;;;7.50;5.60;;;20.10;99.90;;;;;;4961188;28;20180;-86
2021/07/13 02:32:48;;;;;;;7.37;5.80;;;20.10;99.90;;;;;;4978431;28;20247;-85
2021/07/13 02:35:14;;;;;;;6.90;5.53;;;20.00;99.90;;;;;;4962667;28;20184;-86
2021/07/13 02:37:40;;;;;;;6.30;5.70;;;20.00;99.90;;;;;;4962215;28;20645;-86
2021/07/13 02:40:07;;;;;;;7.37;5.77;;;20.00;99.90;;;;;;4977487;28;20172;-85
2021/07/13 02:42:33;;;;;;;6.10;5.50;;;20.00;99.90;;;;;;4978296;28;20218;-85
2021/07/13 02:45:00;;;;;;;7.83;6.30;;;20.00;99.90;;;;;;4961573;28;20188;-85
2021/07/13 02:47:27;;;;;;;6.00;5.50;;;19.90;99.90;;;;;;4962206;28;20223;-85
2021/07/13 02:49:53;;;;;;;6.60;5.87;;;19.90;99.90;;;;;;4977951;28;20184;-85
2021/07/13 02:52:22;;;;;;;7.33;6.47;;;19.90;99.90;;;;;;4962069;28;20187;-85
2021/07/13 02:54:49;;;;;;;6.10;5.50;;;19.90;99.90;;;;;;4962288;28;20184;-85
2021/07/13 02:57:14;;;;;;;7.70;5.73;;;19.90;99.90;;;;;;4978489;28;20684;-86
2021/07/13 02:59:40;;;;;;;6.83;5.70;;;19.90;99.90;;;;;;4961480;28;20185;-86
2021/07/13 03:02:06;;;;;;;7.30;6.10;;;19.90;99.90;;;;;;4961728;28;20176;-86
2021/07/13 03:04:31;;;;;;;8.03;6.23;;;19.90;99.90;;;;;;4961585;28;20172;-86
2021/07/13 03:06:57;;;;;;;6.57;5.87;;;19.90;99.90;;;;;;4961450;28;20207;-86
2021/07/13 03:09:23;;;;;;;8.47;6.57;;;19.90;99.90;;;;;;4960942;28;20176;-86
2021/07/13 03:11:48;;;;;;;7.97;6.10;;;19.90;99.90;;;;;;4961475;28;20235;-86
2021/07/13 03:14:15;;;;;;;8.47;6.17;;;19.90;99.90;;;;;;4962082;28;20172;-86
2021/07/13 03:16:41;;;;;;;6.90;5.90;;;19.90;99.90;;;;;;4965201;28;20196;-86
2021/07/13 03:19:07;;;;;;;8.43;6.00;;;19.80;99.90;;;;;;4964701;28;20238;-86
2021/07/13 03:21:38;;;;;;;7.90;6.20;;;19.80;99.90;;;;;;4964487;28;20200;-86
2021/07/13 03:24:04;;;;;;;7.33;6.40;;;19.90;99.90;;;;;;4965164;28;20192;-85
2021/07/13 03:26:31;;;;;;;9.63;6.57;;;19.90;99.90;;;;;;4965161;28;20204;-86
2021/07/13 03:29:00;;;;;;;9.43;6.43;;;19.90;99.90;;;;;;4966548;28;20180;-85
2021/07/13 03:31:26;;;;;;;7.77;6.50;;;19.80;99.90;;;;;;4966751;28;20286;-85
2021/07/13 03:33:52;;;;;;;7.33;6.40;;;19.80;99.90;;;;;;4966248;28;20180;-85
2021/07/13 03:36:18;;;;;;;6.50;5.90;;;19.80;99.90;;;;;;4982554;28;20680;-85
2021/07/13 03:38:44;;;;;;;7.50;6.37;;;19.80;99.90;;;;;;4981610;28;20176;-86
2021/07/13 03:41:09;;;;;;;8.63;6.90;;;19.80;99.90;;;;;;4983216;28;20255;-86
2021/07/13 03:43:35;;;;;;;7.20;6.50;;;19.80;99.90;;;;;;4967162;28;20191;-86
2021/07/13 03:46:01;;;;;;;7.10;6.17;;;19.80;99.90;;;;;;4966513;28;20207;-85
2021/07/13 03:48:26;;;;;;;9.17;5.90;;;19.90;99.90;;;;;;4967492;28;20208;-85
2021/07/13 03:50:52;;;;;;;7.77;6.97;;;19.80;99.90;;;;;;4966608;28;20575;-86
2021/07/13 03:53:17;;;;;;;7.67;6.30;;;19.80;99.90;;;;;;4982869;28;20180;-85
2021/07/13 03:55:44;;;;;;;6.40;5.80;;;19.90;99.90;;;;;;4967469;28;20188;-86
2021/07/13 03:58:09;;;;;;;8.33;6.20;;;19.80;99.90;;;;;;4966485;28;20275;-85
2021/07/13 04:00:35;;;;;;;8.17;6.57;;;19.80;99.90;;;;;;4965848;28;20227;-85
2021/07/13 04:03:01;;;;;;;7.73;6.40;;;19.90;99.90;;;;;;4966617;28;20184;-86
2021/07/13 04:05:27;;;;;;;8.83;6.00;;;19.90;99.90;;;;;;4966311;28;20469;-85
2021/07/13 04:07:53;;;;;;;7.80;6.27;;;19.90;99.90;;;;;;4967326;28;20176;-85
2021/07/13 04:10:19;;;;;;;7.60;6.53;;;19.80;99.90;;;;;;4966828;28;20215;-85
2021/07/13 04:12:44;;;;;;;7.30;6.57;;;19.80;99.90;;;;;;4965897;28;20259;-85
2021/07/13 04:15:10;;;;;;;7.50;6.80;;;19.80;99.90;;;;;;4966360;28;20186;-85
2021/07/13 04:17:36;;;;;;;8.33;6.93;;;19.80;99.90;;;;;;4966308;28;20200;-85
2021/07/13 04:20:03;;;;;;;7.73;6.47;;;19.80;99.90;;;;;;4966301;28;20274;-86
2021/07/13 04:22:29;;;;;;;8.53;6.27;;;19.80;99.90;;;;;;4966637;28;20216;-85
2021/07/13 04:24:55;;;;;;;7.13;6.40;;;19.80;99.90;;;;;;4967742;28;20184;-86
2021/07/13 04:27:21;;;;;;;7.50;6.80;;;19.80;99.90;;;;;;4965041;28;20612;-85
2021/07/13 04:29:46;;;;;;;7.23;6.47;;;19.80;99.90;;;;;;4965357;28;20191;-85
2021/07/13 04:32:12;;;;;;;7.87;7.07;;;19.80;99.90;;;;;;4966291;28;20183;-85
2021/07/13 04:34:37;;;;;;;9.20;6.97;;;19.80;99.90;;;;;;4965933;28;20184;-86
2021/07/13 04:37:03;;;;;;;7.83;6.97;;;19.80;99.90;;;;;;4966011;28;20204;-86
2021/07/13 04:39:29;;;;;;;7.67;6.83;;;19.80;99.90;;;;;;4966516;28;20616;-86
2021/07/13 04:41:54;;;;;;;9.07;7.50;;;19.80;99.90;;;;;;4966007;28;20211;-86
2021/07/13 04:44:20;;;;;;;10.00;7.73;;;19.70;99.90;;;;;;4966452;28;20188;-86
2021/07/13 04:46:46;;;;;;;8.47;7.57;;;19.80;99.90;;;;;;4965844;28;20653;-85
2021/07/13 04:49:12;;;;;;;11.27;8.00;;;19.80;99.90;;;;;;4965626;28;20634;-86
2021/07/13 04:51:38;;;;;;;8.90;8.00;;;19.80;99.90;;;;;;4966446;28;20603;-85
2021/07/13 04:54:03;;;;;;;10.27;9.00;;;19.80;99.90;;;;;;4965964;28;20184;-86
2021/07/13 04:56:29;;;;;;;13.03;9.30;;;19.80;99.90;;;;;;4965792;28;20196;-86
2021/07/13 04:58:55;;;;;;;13.27;9.37;;;19.80;99.90;;;;;;4981534;28;20199;-86
2021/07/13 05:01:20;;;;;;;13.50;9.90;;;19.70;99.90;;;;;;4965031;28;20217;-86
2021/07/13 05:03:46;;;;;;;13.50;11.03;;;19.70;99.90;;;;;;4982247;28;20180;-86
2021/07/13 05:06:11;;;;;;;14.83;11.33;;;19.70;99.90;;;;;;4965303;28;20688;-86
2021/07/13 05:08:37;;;;;;;14.47;10.93;;;19.70;99.90;;;;;;4981386;28;20567;-86
2021/07/13 05:11:03;;;;;;;15.13;11.63;;;19.70;99.90;;;;;;4992851;23;20227;-73
2021/07/13 05:13:28;;;;;;;18.43;11.47;;;19.70;99.90;;;;;;4976991;28;20533;-73
2021/07/13 05:15:54;;;;;;;16.57;11.17;;;19.70;99.90;;;;;;4976905;28;20188;-73
2021/07/13 05:18:20;;;;;;;15.17;11.37;;;19.70;99.90;;;;;;4993123;28;20180;-73
2021/07/13 05:20:50;;;;;;;13.03;11.37;;;19.70;99.90;;;;;;4992696;28;20196;-73
2021/07/13 05:23:15;;;;;;;15.00;12.07;;;19.70;99.90;;;;;;5000075;22;20303;-74
2021/07/13 05:25:41;;;;;;;16.23;11.50;;;19.80;99.90;;;;;;4992884;28;20176;-73
2021/07/13 05:28:10;;;;;;;15.07;12.60;;;19.80;99.90;;;;;;4994061;28;20263;-73
2021/07/13 05:30:40;;;;;;;16.60;12.93;;;19.70;99.90;;;;;;4992522;28;20291;-73
2021/07/13 05:33:05;;;;;;;14.37;12.10;;;19.70;99.90;;;;;;4960906;28;20172;-73
2021/07/13 05:35:31;;;;;;;14.67;11.63;;;19.80;99.90;;;;;;4992800;28;20211;-73
2021/07/13 05:37:56;;;;;;;14.73;13.17;;;19.80;99.90;;;;;;4992481;28;20176;-73
2021/07/13 05:40:22;;;;;;;18.57;12.33;;;19.80;99.90;;;;;;4993864;28;20271;-73
2021/07/13 05:42:47;;;;;;;16.63;13.07;;;19.80;99.90;;;;;;4993750;28;20203;-73
2021/07/13 05:45:13;;;;;;;16.83;13.40;;;19.80;99.90;;;;;;4993742;28;20211;-73
2021/07/13 05:47:38;;;;;;;20.97;13.47;;;19.90;99.90;;;;;;4992565;28;20219;-73
2021/07/13 05:50:05;;;;;;;17.40;12.73;;;20.00;99.90;;;;;;4992150;28;20238;-74
2021/07/13 05:52:31;;;;;;;15.93;13.73;;;20.00;99.90;;;;;;4992238;28;20636;-74
2021/07/13 05:54:56;;;;;;;17.77;13.53;;;20.00;99.90;;;;;;4992360;28;20176;-73
2021/07/13 05:57:22;;;;;;;18.00;13.47;;;19.90;99.90;;;;;;4960012;28;20183;-73
2021/07/13 05:59:47;;;;;;;16.23;13.33;;;19.90;99.90;;;;;;4993234;28;20278;-73
2021/07/13 06:02:13;;;;;;;16.20;13.43;;;20.00;99.90;;;;;;4993504;28;20263;-73
2021/07/13 06:04:38;;;;;;;18.87;13.27;;;19.90;99.90;;;;;;4975924;28;20211;-73
2021/07/13 06:07:04;;;;;;;17.90;12.93;;;19.90;99.90;;;;;;4993224;28;20176;-73
2021/07/13 06:09:29;;;;;;;17.40;12.23;;;20.00;99.90;;;;;;4991815;28;20701;-73
2021/07/13 06:11:56;;;;;;;18.70;13.37;;;20.10;99.90;;;;;;4993159;28;20215;-73
2021/07/13 06:14:21;;;;;;;16.27;14.17;;;20.00;99.90;;;;;;4992013;28;20184;-73
2021/07/13 06:16:47;;;;;;;14.53;12.93;;;20.00;99.90;;;;;;4991910;28;20553;-73
2021/07/13 06:19:13;;;;;;;15.87;13.40;;;20.00;99.90;;;;;;4975569;28;20242;-73
2021/07/13 06:21:38;;;;;;;19.57;14.07;;;20.00;99.90;;;;;;4992778;28;20338;-73
2021/07/13 06:24:04;;;;;;;19.33;14.97;;;20.00;99.90;;;;;;4993069;28;20550;-73
2021/07/13 06:26:29;;;;;;;18.93;15.13;;;20.00;99.90;;;;;;4975765;28;20595;-73
2021/07/13 06:28:55;;;;;;;20.47;15.90;;;20.00;99.90;;;;;;4991787;28;20180;-73
2021/07/13 06:31:20;;;;;;;17.67;15.83;;;20.00;99.90;;;;;;4991696;28;20552;-73
2021/07/13 06:33:46;;;;;;;21.47;15.80;;;20.00;99.90;;;;;;4975632;28;20215;-73
2021/07/13 06:36:12;;;;;;;19.43;16.73;;;20.00;99.90;;;;;;4991647;28;20246;-73
2021/07/13 06:38:37;;;;;;;25.43;17.97;;;20.00;99.90;;;;;;4975315;28;20219;-73
2021/07/13 06:41:03;;;;;;;21.13;17.70;;;20.00;99.90;;;;;;4991515;28;20208;-73
2021/07/13 06:43:28;;;;;;;22.73;17.23;;;20.00;99.90;;;;;;4991613;28;20615;-73
2021/07/13 06:45:54;;;;;;;20.47;17.20;;;20.00;99.90;;;;;;4992737;28;20670;-73
2021/07/13 06:48:19;;;;;;;25.10;17.83;;;19.90;99.90;;;;;;4991242;28;20208;-73
2021/07/13 06:50:45;;;;;;;25.13;17.97;;;20.00;99.90;;;;;;4990794;28;20204;-73
2021/07/13 06:53:10;;;;;;;24.17;18.93;;;19.90;99.90;;;;;;4991471;28;20259;-73
2021/07/13 06:55:36;;;;;;;22.13;18.13;;;19.80;99.90;;;;;;4991560;28;20211;-73
2021/07/13 06:58:01;;;;;;;26.20;19.97;;;19.80;99.90;;;;;;4992681;28;20208;-73
2021/07/13 07:00:27;;;;;;;22.33;19.40;;;19.80;99.90;;;;;;4991378;28;20215;-73
2021/07/13 07:02:53;;;;;;;25.63;18.77;;;19.80;99.90;;;;;;4991411;28;20550;-73
2021/07/13 07:05:18;;;;;;;25.97;19.83;;;19.80;99.90;;;;;;4992577;28;20643;-73
2021/07/13 07:07:48;;;;;;;23.50;18.60;;;19.80;99.90;;;;;;4992620;28;20219;-73
2021/07/13 07:10:14;;;;;;;24.93;19.33;;;19.70;99.90;;;;;;4990957;28;20595;-73
2021/07/13 07:12:40;;;;;;;26.30;20.83;;;19.70;99.90;;;;;;4975251;28;20177;-73
2021/07/13 07:15:05;;;;;;;27.73;20.70;;;19.60;99.90;;;;;;4991333;28;20798;-73
2021/07/13 07:17:31;;;;;;;26.33;20.40;;;19.70;99.90;;;;;;4991354;28;20688;-73
2021/07/13 07:20:00;;;;;;;26.00;21.43;;;19.60;99.90;;;;;;4992337;28;20573;-73
2021/07/13 07:22:26;;;;;;;27.70;21.43;;;19.60;99.90;;;;;;4975770;28;20231;-73
2021/07/13 07:24:52;;;;;;;26.17;21.53;;;19.70;99.90;;;;;;4975117;28;20207;-73
2021/07/13 07:27:17;;;;;;;24.93;20.53;;;19.60;99.90;;;;;;4991302;28;20184;-73
2021/07/13 07:29:43;;;;;;;28.47;21.83;;;19.60;99.90;;;;;;4990972;28;20188;-73
2021/07/13 07:32:08;;;;;;;30.43;22.20;;;19.50;99.90;;;;;;4991091;28;20204;-73
2021/07/13 07:34:34;;;;;;;27.77;22.20;;;19.60;99.90;;;;;;4975170;28;20187;-73
2021/07/13 07:36:59;;;;;;;28.07;22.23;;;19.50;99.90;;;;;;4992316;28;20594;-73
2021/07/13 07:39:25;;;;;;;29.70;21.77;;;19.50;99.90;;;;;;4974682;28;20172;-73
2021/07/13 07:41:52;;;;;;;28.70;22.37;;;19.50;99.90;;;;;;4992859;28;20204;-73
2021/07/13 07:44:18;;;;;;;29.67;23.23;;;19.40;99.90;;;;;;4992303;28;20212;-73
2021/07/13 07:46:44;;;;;;;29.60;23.93;;;19.40;99.90;;;;;;4991030;28;20200;-73
2021/07/13 07:49:10;;;;;;;32.83;24.30;;;19.40;99.90;;;;;;4974491;28;20590;-73
2021/07/13 07:51:35;;;;;;;32.43;24.80;;;19.50;99.90;;;;;;4974712;28;20583;-73
2021/07/13 07:54:01;;;;;;;33.27;26.40;;;19.50;99.90;;;;;;4992150;28;20168;-73
2021/07/13 07:56:26;;;;;;;34.53;26.30;;;19.50;99.90;;;;;;4974850;28;20203;-73
2021/07/13 07:58:52;;;;;;;33.20;26.07;;;19.60;99.90;;;;;;4990923;28;20543;-73
2021/07/13 08:01:18;;;;;;;34.60;28.33;;;19.50;99.90;;;;;;4994458;28;20196;-73
2021/07/13 08:03:43;;;;;;;34.87;27.67;;;19.60;99.90;;;;;;4994461;28;20211;-71
2021/07/13 08:06:09;;;;;;;35.37;28.43;;;19.60;99.90;;;;;;4994438;28;20199;-71
2021/07/13 08:08:34;;;;;;;35.63;29.47;;;19.70;99.90;;;;;;4994414;28;20188;-71
2021/07/13 08:11:00;;;;;;;38.13;30.03;;;19.70;99.90;;;;;;4994240;28;20826;-71
2021/07/13 08:13:26;;;;;;;36.50;29.67;;;19.80;99.90;;;;;;4995492;28;20172;-71
2021/07/13 08:15:53;;;;;;;36.23;29.07;;;19.80;99.90;;;;;;4994249;28;20164;-71
2021/07/13 08:18:20;;;;;;;34.43;29.00;;;19.80;99.90;;;;;;4995385;28;20642;-71
2021/07/13 08:20:46;;;;;;;39.00;30.97;;;19.80;99.90;;;;;;4995036;28;20196;-71
2021/07/13 08:23:12;;;;;;;41.13;31.27;;;19.90;99.90;;;;;;4994060;28;20192;-73
2021/07/13 08:25:37;;;;;;;39.73;31.47;;;19.90;99.90;;;;;;4978145;28;20176;-73
2021/07/13 08:28:03;;;;;;;38.20;31.37;;;20.00;99.90;;;;;;4995256;28;20191;-73
2021/07/13 08:30:31;;;;;;;39.30;31.33;;;20.10;99.90;;;;;;4977478;28;20204;-73
2021/07/13 08:32:57;;;;;;;38.77;30.97;;;20.20;99.90;;;;;;4993983;28;20164;-73
2021/07/13 08:35:22;;;;;;;36.10;31.20;;;20.20;99.90;;;;;;4993941;28;20175;-73
2021/07/13 08:37:49;;;;;;;34.90;30.00;;;20.20;99.90;;;;;;4993919;28;20180;-73
2021/07/13 08:40:15;;;;;;;36.23;30.57;;;20.10;99.90;;;;;;4993707;28;20278;-73
2021/07/13 08:42:42;;;;;;;37.93;31.47;;;20.10;99.90;;;;;;4977755;28;20175;-73
2021/07/13 08:45:15;;;;;;;40.20;31.97;;;20.10;99.90;;;;;;4993795;28;20180;-73
2021/07/13 08:47:41;;;;;;;41.47;32.77;;;20.20;99.90;;;;;;4993863;28;20180;-73
2021/07/13 08:50:08;;;;;;;41.17;33.80;;;20.20;99.90;;;;;;4977317;28;20215;-73
2021/07/13 08:52:33;;;;;;;40.13;34.37;;;20.30;99.90;;;;;;4977451;28;20212;-73
2021/07/13 08:54:59;;;;;;;42.50;33.83;;;20.40;99.90;;;;;;4993657;28;20199;-73
2021/07/13 08:57:25;;;;;;;40.00;34.50;;;20.40;99.90;;;;;;4993645;28;20179;-73
2021/07/13 08:59:50;;;;;;;40.50;34.83;;;20.40;99.90;;;;;;4976967;28;20188;-73
2021/07/13 09:02:16;;;;;;;41.93;34.90;;;20.50;99.90;;;;;;4993464;28;20204;-74
2021/07/13 09:04:41;;;;;;;40.23;33.97;;;20.50;99.90;;;;;;4993386;28;20180;-73
2021/07/13 09:07:08;;;;;;;42.03;35.83;;;20.50;99.90;;;;;;4960959;28;20185;-73
2021/07/13 09:09:35;;;;;;;39.97;35.67;;;20.50;99.90;;;;;;4993090;28;20172;-73
2021/07/13 09:12:05;;;;;;;39.83;34.90;;;20.60;99.90;;;;;;4992600;28;20213;-73
2021/07/13 09:14:50;;;;;;;47.53;35.80;;;20.60;99.90;;;;;;4993091;28;20646;-73
2021/07/13 09:17:41;;;;;;;41.07;35.43;;;20.70;99.90;;;;;;4977543;28;20211;-73
2021/07/13 09:20:21;;;;;;;40.57;35.27;;;20.70;99.90;;;;;;4994058;28;20287;-74
2021/07/13 09:22:53;;;;;;;40.00;34.60;;;20.80;99.90;;;;;;4992925;28;20200;-73
2021/07/13 09:25:25;;;;;;;44.77;36.07;;;20.80;99.90;;;;;;4994151;28;20234;-73
2021/07/13 09:28:03;;;;;;;40.50;35.80;;;20.90;99.90;;;;;;4992814;28;20179;-73
2021/07/13 09:30:30;;;;;;;40.03;35.43;;;21.00;99.90;;;;;;4976351;28;20212;-73
2021/07/13 09:33:16;;;;;;;40.80;35.67;;;21.00;99.90;;;;;;4992875;28;20183;-73
2021/07/13 09:36:07;;;;;;;46.63;35.80;;;21.00;99.90;;;;;;4992950;28;20557;-73
2021/07/13 09:38:53;;;;;;;39.30;34.27;;;21.00;99.90;;;;;;4993886;28;20298;-73
2021/07/13 09:41:28;;;;;;;42.27;36.07;;;21.00;99.90;;;;;;4992948;28;20630;-73
2021/07/13 09:44:01;;;;;;;40.23;35.83;;;20.90;99.90;;;;;;4977698;28;20176;-73
2021/07/13 09:46:41;;;;;;;41.40;36.57;;;21.00;99.90;;;;;;4992605;28;20645;-73
2021/07/13 09:49:20;;;;;;;38.80;34.70;;;21.00;99.90;;;;;;4977521;28;20396;-73
2021/07/13 09:51:47;;;;;;;38.23;33.50;;;21.10;99.90;;;;;;4993625;28;20196;-73
2021/07/13 09:54:41;;;;;;;37.47;33.40;;;21.10;99.90;;;;;;4976415;28;20168;-73
2021/07/13 09:57:27;;;;;;;36.33;32.57;;;21.20;99.90;;;;;;4992442;28;20180;-73
2021/07/13 09:59:55;;;;;;;37.07;32.97;;;21.20;99.90;;;;;;4992217;28;20652;-73
2021/07/13 10:02:25;;;;;;;36.87;32.87;;;21.20;99.90;;;;;;4992403;28;20255;-73
2021/07/13 10:04:51;;;;;;;37.37;33.30;;;21.20;99.90;;;;;;4976574;28;20584;-73
2021/07/13 10:07:18;;;;;;;35.77;32.03;;;21.30;99.90;;;;;;4992346;28;20169;-73
2021/07/13 10:09:50;;;;;;;35.47;31.70;;;21.40;99.90;;;;;;4975903;28;20199;-73
2021/07/13 10:12:17;;;;;;;34.90;31.20;;;21.40;99.90;;;;;;4992029;28;20200;-74
2021/07/13 10:14:44;;;;;;;33.97;30.37;;;21.50;99.90;;;;;;4976054;28;20173;-74
2021/07/13 10:17:10;;;;;;;35.13;31.33;;;21.60;99.90;;;;;;4975932;28;20231;-73
2021/07/13 10:19:39;;;;;;;35.37;31.67;;;21.60;99.90;;;;;;4975573;28;20841;-73
2021/07/13 10:22:05;;;;;;;35.50;31.77;;;21.70;99.90;;;;;;4976207;28;20558;-73
2021/07/13 10:24:30;;;;;;;35.07;31.47;;;21.80;99.90;;;;;;4974984;28;20189;-73
2021/07/13 10:26:56;;;;;;;32.20;28.43;;;21.90;99.90;;;;;;4992126;28;20199;-73
2021/07/13 10:29:33;;;;;;;31.87;28.47;;;21.90;99.90;;;;;;4975390;28;20184;-73
2021/07/13 10:32:03;;;;;;;30.90;27.63;;;22.00;99.90;;;;;;4992902;28;20215;-73
2021/07/13 10:34:48;;;;;;;29.67;26.70;;;22.10;99.90;;;;;;4992892;28;20251;-73
2021/07/13 10:37:33;;;;;;;29.70;26.50;;;22.10;99.90;;;;;;4991652;28;20177;-73
2021/07/13 10:40:10;;;;;;;30.33;27.23;;;22.20;99.90;;;;;;4991302;28;20246;-73
2021/07/13 10:42:41;;;;;;;32.17;28.77;;;22.20;99.90;;;;;;4991778;28;20222;-73
2021/07/13 10:45:12;;;;;;;31.13;28.00;;;22.30;99.90;;;;;;4991635;28;20184;-73
2021/07/13 10:47:38;;;;;;;29.07;26.13;;;22.40;99.90;;;;;;4991629;28;20267;-73
2021/07/13 10:50:16;;;;;;;28.37;25.53;;;22.30;99.90;;;;;;4975245;28;20204;-73
2021/07/13 10:52:55;;;;;;;28.27;25.30;;;22.20;99.90;;;;;;4992648;28;20179;-73
2021/07/13 10:55:49;;;;;;;29.47;26.47;;;22.10;99.90;;;;;;4991578;28;20172;-73
2021/07/13 10:58:15;;;;;;;29.53;25.33;;;22.00;99.90;;;;;;4988622;28;20659;-73
2021/07/13 11:00:50;;;;;;;30.10;27.03;;;22.00;99.90;;;;;;4992444;28;20211;-73
2021/07/13 11:03:30;;;;;;;30.50;27.20;;;22.00;99.90;;;;;;4992678;28;20258;-73
2021/07/13 11:05:57;;;;;;;28.90;25.07;;;22.00;99.90;;;;;;4992570;28;20172;-73
2021/07/13 11:11:29;;;;;;;31.77;28.27;;;22.10;99.90;;;;;;4992930;28;20215;-73
2021/07/13 11:14:05;;;;;;;29.13;26.07;;;22.10;99.90;;;;;;4987126;28;20200;-74
2021/07/13 11:16:35;;;;;;;27.33;24.53;;;22.20;99.90;;;;;;4991392;28;20195;-73
2021/07/13 11:19:03;;;;;;;29.27;26.50;;;22.20;99.90;;;;;;4975007;28;20219;-73
2021/07/13 11:21:37;;;;;;;29.87;26.90;;;22.30;99.90;;;;;;4992229;28;20710;-73
2021/07/13 11:24:03;;;;;;;28.07;25.27;;;22.30;99.90;;;;;;4991275;28;20192;-73
2021/07/13 11:26:28;;;;;;;27.43;24.57;;;22.30;99.90;;;;;;4992536;28;20660;-73
2021/07/13 11:28:58;;;;;;;24.53;22.13;;;22.30;99.90;;;;;;4991161;28;20204;-73
2021/07/13 11:31:28;;;;;;;21.90;19.70;;;22.30;99.90;;;;;;4975221;28;20214;-74
2021/07/13 11:34:05;;;;;;;21.83;19.33;;;22.30;99.90;;;;;;4975134;28;20176;-74
2021/07/13 11:36:31;;;;;;;18.33;16.53;;;22.40;99.90;;;;;;4994008;28;20172;-73
2021/07/13 11:39:01;;;;;;;17.93;16.13;;;22.30;99.90;;;;;;4994728;28;20180;-74
2021/07/13 11:41:29;;;;;;;18.03;16.30;;;22.30;99.90;;;;;;4979384;28;20692;-73
2021/07/13 11:44:01;;;;;;;18.13;16.40;;;22.30;99.90;;;;;;4994945;28;20259;-73
2021/07/13 11:46:27;;;;;;;16.70;15.20;;;22.30;99.90;;;;;;4994842;28;20180;-73
2021/07/13 11:49:00;;;;;;;17.50;15.90;;;22.30;99.90;;;;;;4994387;28;20176;-73
2021/07/13 11:51:29;;;;;;;17.13;15.53;;;22.40;99.90;;;;;;4995752;28;20212;-73
2021/07/13 11:54:17;;;;;;;16.83;15.13;;;22.40;99.90;;;;;;4994674;28;20187;-73
2021/07/13 11:56:47;;;;;;;19.13;15.90;;;22.40;99.90;;;;;;4980865;28;20172;-74
2021/07/13 11:59:16;;;;;;;19.50;17.70;;;22.40;99.90;;;;;;4978548;28;20176;-74
2021/07/13 12:01:47;;;;;;;17.87;16.03;;;22.50;99.90;;;;;;4994470;28;20204;-74
2021/07/13 12:04:13;;;;;;;19.37;17.47;;;22.50;99.90;;;;;;4994514;28;20168;-73
2021/07/13 12:06:40;;;;;;;18.03;16.13;;;22.50;99.90;;;;;;4995555;28;20674;-73
2021/07/13 12:09:12;;;;;;;18.90;16.87;;;22.40;99.90;;;;;;4961923;28;20782;-73
2021/07/13 12:11:45;;;;;;;17.87;16.23;;;22.30;99.90;;;;;;4994323;28;20286;-74
2021/07/13 12:14:11;;;;;;;16.80;15.30;;;22.40;99.90;;;;;;4994210;28;20172;-73
2021/07/13 12:16:37;;;;;;;17.30;15.50;;;22.50;99.90;;;;;;4995639;28;20628;-73
2021/07/13 12:19:09;;;;;;;16.17;14.67;;;22.50;99.90;;;;;;4994019;28;20262;-74
2021/07/13 12:21:38;;;;;;;18.60;16.63;;;22.60;99.90;;;;;;4994079;28;20514;-73
2021/07/13 12:24:09;;;;;;;19.00;17.00;;;22.60;99.90;;;;;;4978473;28;20188;-73
2021/07/13 12:26:36;;;;;;;18.07;16.27;;;22.70;99.90;;;;;;4978511;28;20643;-74
2021/07/13 12:29:05;;;;;;;19.70;16.80;;;22.80;99.90;;;;;;4977787;28;20177;-73
2021/07/13 12:31:36;;;;;;;18.03;16.23;;;22.80;99.90;;;;;;4993757;28;20298;-74
2021/07/13 12:34:03;;;;;;;18.77;16.97;;;22.90;99.90;;;;;;4977901;28;20168;-73
2021/07/13 12:36:29;;;;;;;18.02;16.23;;;22.90;99.90;;;;;;4993829;28;20207;-73
2021/07/13 12:38:55;;;;;;;23.73;21.33;;;22.90;99.90;;;;;;4993481;28;20176;-74
2021/07/13 12:41:24;;;;;;;24.77;21.57;;;22.90;99.90;;;;;;4993783;28;20614;-74
2021/07/13 12:43:49;;;;;;;27.38;24.55;;;22.80;99.90;;;;;;4977745;28;20184;-74